Time;durP1;ratioP1;P1;durP2;ratioP2;P2;SDS_P1;SDS_P2;PMS_P1;PMS_P2;Temp;Humidity;BMP_temperature;BMP_pressure;BME280_temperature;BME280_humidity;BME280_pressure;Samples;Min_cycle;Max_cycle;Signal;HPM_P1;HPM_P2
2022/06/11 00:02:01;;;;;;;8.05;3.95;;;;;;;18.36;79.13;102130.03;5052147;28;20033;-77
2022/06/11 00:04:30;;;;;;;8.25;4.65;;;;;;;18.29;79.01;102133.41;5047741;28;20029;-77
2022/06/11 00:07:07;;;;;;;9.23;5.45;;;;;;;18.35;78.94;102133.50;5052023;28;20036;-76
2022/06/11 00:09:32;;;;;;;10.65;4.85;;;;;;;18.30;78.59;102123.88;5044566;28;20119;-77
2022/06/11 00:11:58;;;;;;;9.52;4.82;;;;;;;18.26;79.16;102133.38;5058901;28;20028;-76
2022/06/11 00:14:26;;;;;;;8.95;5.00;;;;;;;18.16;79.01;102129.72;5057699;28;20162;-77
2022/06/11 00:16:52;;;;;;;9.63;4.90;;;;;;;18.16;78.54;102139.25;5053867;28;20032;-76
2022/06/11 00:19:20;;;;;;;9.02;4.47;;;;;;;18.10;79.15;102124.41;5047686;28;20037;-77
2022/06/11 00:21:47;;;;;;;7.90;3.92;;;;;;;18.10;79.33;102132.22;5049754;28;20083;-76
2022/06/11 00:24:14;;;;;;;8.48;4.03;;;;;;;18.12;78.94;102129.63;5054752;28;20035;-76
2022/06/11 00:26:42;;;;;;;6.32;3.80;;;;;;;18.05;78.95;102130.38;5038425;28;20028;-77
2022/06/11 00:29:09;;;;;;;10.32;4.38;;;;;;;18.04;79.07;102134.72;5051612;28;20045;-76
2022/06/11 00:31:34;;;;;;;8.98;4.00;;;;;;;18.01;78.95;102124.25;5046862;28;20040;-77
2022/06/11 00:34:00;;;;;;;7.35;3.90;;;;;;;18.01;79.11;102132.03;5058310;28;20016;-77
2022/06/11 00:36:25;;;;;;;8.63;4.20;;;;;;;17.98;79.68;102123.31;5020242;28;20058;-76
2022/06/11 00:38:51;;;;;;;7.13;3.67;;;;;;;17.98;79.02;102134.63;5039248;28;20033;-76
2022/06/11 00:41:20;;;;;;;6.43;3.80;;;;;;;17.97;79.23;102112.03;5036497;28;20032;-77
2022/06/11 00:43:46;;;;;;;;;;;;;;;18.15;78.23;102114.97;5037827;28;20060;-76
2022/06/11 00:46:41;;;;;;;5.75;3.67;;;;;;;18.02;79.15;102115.59;5032800;28;20016;-76
2022/06/11 00:49:19;;;;;;;8.07;3.60;;;;;;;18.01;78.76;102123.38;5037408;28;20033;-76
2022/06/11 00:51:46;;;;;;;6.15;3.55;;;;;;;17.86;79.37;102118.78;5038738;28;20037;-76
2022/06/11 00:54:16;;;;;;;7.20;3.35;;;;;;;17.89;79.57;102116.22;5038011;28;20058;-77
2022/06/11 00:56:46;;;;;;;6.03;3.40;;;;;;;17.85;79.98;102117.03;5041692;28;20075;-76
2022/06/11 00:59:21;;;;;;;8.10;3.47;;;;;;;17.79;79.50;102116.91;5047172;28;20112;-76
2022/06/11 01:01:47;;;;;;;7.10;3.75;;;;;;;17.78;79.32;102123.84;5038783;28;20028;-76
2022/06/11 01:04:31;;;;;;;8.55;3.78;;;;;;;17.85;79.14;102115.31;5040428;28;20106;-76
2022/06/11 01:07:05;;;;;;;5.35;3.30;;;;;;;17.79;79.55;102115.19;5041969;28;20032;-76
2022/06/11 01:09:45;;;;;;;5.13;3.50;;;;;;;17.74;79.66;102124.63;5040388;28;20028;-76
2022/06/11 01:12:29;;;;;;;6.93;3.53;;;;;;;17.77;79.64;102116.88;5035789;28;20535;-76
2022/06/11 01:15:00;;;;;;;7.07;3.67;;;;;;;17.69;80.01;102123.63;5037802;28;20033;-77
2022/06/11 01:17:41;;;;;;;8.00;3.42;;;;;;;17.70;80.02;102121.06;5023038;28;20048;-76
2022/06/11 01:20:29;;;;;;;7.13;3.55;;;;;;;17.70;79.58;102109.78;5021236;28;20120;-77
2022/06/11 01:23:29;;;;;;;7.32;3.75;;;;;;;17.68;79.73;102116.69;5030045;28;20064;-76
2022/06/11 01:25:57;;;;;;;6.80;3.40;;;;;;;17.55;80.45;102117.31;5030780;28;20086;-76
2022/06/11 01:28:50;;;;;;;8.43;3.63;;;;;;;17.54;80.34;102112.94;5027246;28;20036;-76
2022/06/11 01:31:37;;;;;;;5.30;3.33;;;;;;;17.56;80.46;102119.91;5037798;28;20032;-76
2022/06/11 01:34:20;;;;;;;7.95;3.28;;;;;;;17.54;80.79;102124.22;5035496;28;20029;-76
2022/06/11 01:36:50;;;;;;;4.93;3.47;;;;;;;17.53;80.80;102109.44;5045997;28;20041;-76
2022/06/11 01:39:41;;;;;;;5.90;3.40;;;;;;;17.52;80.56;102115.50;5066419;28;20027;-76
2022/06/11 01:42:21;;;;;;;8.43;4.00;;;;;;;17.53;80.56;102116.38;5057404;28;20631;-76
2022/06/11 01:44:59;;;;;;;7.38;3.55;;;;;;;17.54;81.01;102113.81;5061020;28;20044;-77
2022/06/11 01:47:25;;;;;;;4.93;3.50;;;;;;;17.44;80.77;102114.47;5061087;28;20074;-76
2022/06/11 01:49:50;;;;;;;7.70;3.60;;;;;;;17.46;80.89;102109.31;5046308;28;20063;-76
2022/06/11 01:52:31;;;;;;;5.68;3.50;;;;;;;17.50;81.08;102112.00;5043581;28;20158;-76
2022/06/11 01:55:11;;;;;;;7.90;3.53;;;;;;;17.48;81.00;102113.72;5051737;28;20044;-76
2022/06/11 01:58:00;;;;;;;8.57;3.75;;;;;;;17.46;80.62;102107.56;5042181;28;20032;-76
2022/06/11 02:00:34;;;;;;;3.65;3.25;;;;;;;17.40;81.30;102110.06;5064473;28;20062;-76
2022/06/11 02:03:19;;;;;;;5.72;3.63;;;;;;;17.46;80.76;102109.31;5056003;28;20040;-76
2022/06/11 02:05:53;;;;;;;5.15;3.38;;;;;;;17.43;81.00;102112.72;5062328;28;20402;-76
2022/06/11 02:08:32;;;;;;;6.00;3.40;;;;;;;17.37;80.99;102108.28;5063895;28;20079;-76
2022/06/11 02:11:18;;;;;;;8.43;3.67;;;;;;;17.37;80.98;102115.22;5065327;28;20031;-76
2022/06/11 02:14:13;;;;;;;6.15;3.60;;;;;;;17.39;81.12;102108.31;5057553;28;20154;-76
2022/06/11 02:16:46;;;;;;;6.57;3.35;;;;;;;17.33;81.41;102111.66;5058129;28;20491;-76
2022/06/11 02:19:18;;;;;;;6.43;3.72;;;;;;;17.29;81.48;102112.47;5057161;28;20032;-76
2022/06/11 02:21:54;;;;;;;7.72;3.55;;;;;;;17.32;81.39;102109.91;5060667;28;20031;-76
2022/06/11 02:24:34;;;;;;;7.72;3.80;;;;;;;17.32;81.43;102109.91;5057085;28;20044;-76
2022/06/11 02:27:04;;;;;;;9.15;3.70;;;;;;;17.32;81.33;102106.44;5056592;28;20032;-76
2022/06/11 02:29:31;;;;;;;7.35;3.50;;;;;;;17.22;81.81;102118.34;5055752;28;20021;-76
2022/06/11 02:32:03;;;;;;;7.03;3.60;;;;;;;17.18;82.11;102120.88;5061405;28;20085;-76
2022/06/11 02:34:29;;;;;;;5.13;3.67;;;;;;;17.20;82.07;102122.66;5061886;28;20107;-76
2022/06/11 02:37:02;;;;;;;6.80;3.50;;;;;;;17.18;82.29;102123.50;5053136;28;20053;-76
2022/06/11 02:39:31;;;;;;;6.63;4.20;;;;;;;17.06;82.14;102127.56;5050845;28;20055;-76
2022/06/11 02:41:57;;;;;;;7.45;3.83;;;;;;;17.10;82.18;102126.78;5052184;28;20020;-76
2022/06/11 02:44:22;;;;;;;8.32;3.90;;;;;;;17.02;82.23;102122.28;5060683;28;20041;-76
2022/06/11 02:46:48;;;;;;;10.65;3.83;;;;;;;17.04;82.37;102133.56;5048314;28;20046;-76
2022/06/11 02:49:21;;;;;;;7.45;3.78;;;;;;;17.03;82.65;102134.41;5043706;28;20518;-76
2022/06/11 02:51:48;;;;;;;9.73;4.13;;;;;;;16.97;82.91;102132.56;5059098;28;20032;-76
2022/06/11 02:54:15;;;;;;;6.43;3.63;;;;;;;16.95;82.45;102136.84;5057360;28;20083;-76
2022/06/11 02:56:42;;;;;;;4.60;3.83;;;;;;;16.92;82.58;102131.56;5043655;28;20478;-76
2022/06/11 02:59:08;;;;;;;6.78;3.60;;;;;;;16.96;82.44;102149.00;5060791;28;20027;-76
2022/06/11 03:01:34;;;;;;;5.15;3.60;;;;;;;16.92;82.55;102144.56;5061010;28;20028;-76
2022/06/11 03:04:01;;;;;;;5.10;3.60;;;;;;;16.92;82.22;102149.75;5062480;28;20021;-77
2022/06/11 03:06:27;;;;;;;7.43;3.50;;;;;;;16.92;82.31;102147.16;5065734;28;20035;-77
2022/06/11 03:08:55;;;;;;;4.97;3.70;;;;;;;16.90;82.21;102148.84;5043678;28;20911;-76
2022/06/11 03:11:20;;;;;;;8.38;3.97;;;;;;;16.77;82.28;102150.31;5062885;28;20038;-77
2022/06/11 03:13:46;;;;;;;7.18;3.83;;;;;;;16.78;82.59;102149.47;5060387;28;20032;-77
2022/06/11 03:16:12;;;;;;;7.40;3.38;;;;;;;16.83;82.51;102159.97;5040622;28;20039;-77
2022/06/11 03:18:37;;;;;;;8.23;3.58;;;;;;;16.79;82.38;102152.94;5069957;28;20036;-76
2022/06/11 03:21:04;;;;;;;6.82;3.40;;;;;;;16.76;82.39;102145.09;5063065;28;20056;-76
2022/06/11 03:23:29;;;;;;;4.22;2.92;;;;;;;16.84;82.04;102153.91;5064573;28;20028;-76
2022/06/11 03:25:56;;;;;;;5.22;3.35;;;;;;;16.78;82.61;102153.78;5060479;28;20052;-76
2022/06/11 03:28:25;;;;;;;6.95;3.50;;;;;;;16.81;82.34;102157.34;5046578;28;20040;-76
2022/06/11 03:30:51;;;;;;;;;;;;;;;17.02;81.21;102164.72;5061004;28;20028;-76
2022/06/11 03:33:17;;;;;;;4.50;2.90;;;;;;;16.85;82.21;102168.66;5048306;28;19931;-76
2022/06/11 03:35:44;;;;;;;5.78;3.33;;;;;;;16.80;82.56;102167.66;5053180;28;20036;-76
2022/06/11 03:38:11;;;;;;;5.43;2.97;;;;;;;16.83;82.36;102168.63;5059267;28;20179;-76
2022/06/11 03:40:36;;;;;;;7.05;3.63;;;;;;;16.84;82.75;102164.31;5060924;28;20063;-77
2022/06/11 03:43:03;;;;;;;6.72;3.30;;;;;;;16.81;82.54;102174.66;5059713;28;20055;-76
2022/06/11 03:45:30;;;;;;;5.65;3.25;;;;;;;16.84;83.01;102167.78;5056229;28;20103;-76
2022/06/11 03:47:55;;;;;;;4.82;3.20;;;;;;;16.85;82.43;102174.72;5057295;28;20158;-76
2022/06/11 03:50:25;;;;;;;7.30;3.35;;;;;;;16.87;82.08;102182.56;5071827;28;20034;-76
2022/06/11 03:52:54;;;;;;;5.55;3.42;;;;;;;16.87;81.69;102180.84;5060930;28;20028;-76
2022/06/11 03:55:20;;;;;;;6.13;3.10;;;;;;;16.83;81.86;102185.94;5060940;28;20032;-76
2022/06/11 03:57:45;;;;;;;8.20;3.28;;;;;;;16.81;81.67;102190.22;5064892;28;20040;-77
2022/06/11 04:00:15;;;;;;;8.88;3.60;;;;;;;16.81;81.31;102196.31;5057675;28;20035;-76
2022/06/11 04:03:30;;;;;;;6.65;3.03;;;;;;;16.84;81.00;102193.75;5036600;28;20029;-77
2022/06/11 04:05:56;;;;;;;6.95;3.15;;;;;;;16.80;80.84;102204.03;5027021;28;20048;-77
2022/06/11 04:08:23;;;;;;;8.93;2.80;;;;;;;16.84;80.43;102201.56;5054473;28;20043;-76
2022/06/11 04:10:51;;;;;;;6.10;3.17;;;;;;;16.88;80.29;102199.91;5043314;28;20028;-77
2022/06/11 04:13:16;;;;;;;5.07;2.60;;;;;;;16.89;80.47;102204.25;5042453;28;20379;-77
2022/06/11 04:15:43;;;;;;;9.38;2.78;;;;;;;16.86;79.57;102211.97;5052443;28;20028;-77
2022/06/11 04:18:18;;;;;;;6.65;2.60;;;;;;;16.87;80.00;102204.25;5058889;28;20115;-77
2022/06/11 04:20:43;;;;;;;6.60;2.65;;;;;;;16.84;79.45;102218.88;5055139;28;20031;-77
2022/06/11 04:23:09;;;;;;;6.07;2.50;;;;;;;16.84;79.22;102209.34;5037051;28;20037;-77
2022/06/11 04:25:34;;;;;;;10.20;2.80;;;;;;;16.87;78.76;102221.56;5037005;28;20106;-77
2022/06/11 04:28:00;;;;;;;5.50;2.35;;;;;;;16.85;78.54;102220.63;5056250;28;20044;-77
2022/06/11 04:30:26;;;;;;;6.82;2.60;;;;;;;16.88;77.97;102223.31;5038914;28;20035;-77
2022/06/11 04:32:51;;;;;;;9.68;2.28;;;;;;;16.88;76.69;102225.91;5055708;28;20455;-77
2022/06/11 04:35:17;;;;;;;7.28;2.50;;;;;;;16.90;77.05;102226.81;5038626;28;20040;-77
2022/06/11 04:37:43;;;;;;;7.38;2.17;;;;;;;16.83;75.89;102230.97;5035658;28;20072;-77
2022/06/11 04:40:08;;;;;;;9.30;2.42;;;;;;;16.89;75.66;102220.72;5054674;28;20106;-77
2022/06/11 04:42:35;;;;;;;8.15;2.20;;;;;;;16.87;75.20;102227.63;5052090;28;20049;-77
2022/06/11 04:45:02;;;;;;;8.02;2.10;;;;;;;16.88;75.10;102228.50;5059966;28;20102;-77
2022/06/11 04:47:29;;;;;;;10.43;2.40;;;;;;;16.82;74.82;102230.94;5063849;28;20421;-77
2022/06/11 04:49:57;;;;;;;8.35;2.25;;;;;;;16.86;75.37;102233.63;5061382;28;20112;-77
2022/06/11 04:52:23;;;;;;;6.70;2.20;;;;;;;16.82;74.35;102230.94;5067182;28;20402;-77
2022/06/11 04:54:49;;;;;;;8.98;2.30;;;;;;;16.87;73.56;102232.81;5050735;28;20032;-76
2022/06/11 04:57:15;;;;;;;9.65;2.33;;;;;;;16.83;73.54;102235.28;5062964;28;20504;-77
2022/06/11 04:59:41;;;;;;;11.55;2.72;;;;;;;16.83;72.72;102236.16;5062122;28;20040;-77
2022/06/11 05:02:07;;;;;;;9.40;2.38;;;;;;;16.81;73.06;102232.66;5044214;28;20043;-77
2022/06/11 05:04:32;;;;;;;9.77;2.20;;;;;;;16.87;72.44;102238.00;5050449;28;20028;-77
2022/06/11 05:06:58;;;;;;;9.73;2.20;;;;;;;16.85;71.57;102233.59;5059234;28;20028;-77
2022/06/11 05:09:26;;;;;;;9.90;2.10;;;;;;;16.89;71.19;102244.13;5046729;28;20075;-77
2022/06/11 05:11:52;;;;;;;5.53;1.70;;;;;;;16.88;71.40;102238.88;5048394;28;20044;-77
2022/06/11 05:14:18;;;;;;;10.70;2.03;;;;;;;16.93;70.68;102241.56;5045813;28;20024;-76
2022/06/11 05:16:45;;;;;;;7.53;2.17;;;;;;;16.96;71.90;102245.13;5060953;28;20060;-77
2022/06/11 05:19:13;;;;;;;9.60;2.10;;;;;;;17.01;70.53;102240.06;5062188;28;20036;-77
2022/06/11 05:21:39;;;;;;;10.15;2.08;;;;;;;16.92;71.71;102245.00;5059233;28;20033;-76
2022/06/11 05:24:06;;;;;;;9.15;2.08;;;;;;;16.92;71.02;102245.91;5057818;28;20041;-76
2022/06/11 05:26:36;;;;;;;11.80;2.75;;;;;;;16.97;70.39;102240.81;5055146;28;20044;-77
2022/06/11 05:29:03;;;;;;;8.20;1.95;;;;;;;16.95;69.65;102253.78;5059997;28;20027;-76
2022/06/11 05:31:29;;;;;;;9.35;1.80;;;;;;;16.99;70.19;102258.22;5063866;28;20028;-76
2022/06/11 05:33:54;;;;;;;13.88;2.33;;;;;;;16.94;69.74;102245.94;5032582;28;20161;-76
2022/06/11 05:36:20;;;;;;;10.98;2.20;;;;;;;16.99;69.87;102242.63;5042746;28;20060;-77
2022/06/11 05:38:46;;;;;;;10.80;2.53;;;;;;;17.08;69.69;102241.94;5059027;28;20040;-77
2022/06/11 05:41:11;;;;;;;12.60;2.20;;;;;;;17.17;69.05;102242.19;5059931;28;20083;-77
2022/06/11 05:43:37;;;;;;;11.32;2.03;;;;;;;17.27;68.96;102238.91;5059331;28;20542;-77
2022/06/11 05:46:08;;;;;;;12.80;2.28;;;;;;;17.34;69.50;102247.72;5059504;28;20463;-77
2022/06/11 05:48:41;;;;;;;9.90;2.15;;;;;;;17.33;69.32;102244.25;5037674;28;20040;-77
2022/06/11 05:51:10;;;;;;;11.50;2.10;;;;;;;17.34;68.94;102253.81;5056915;28;20036;-75
2022/06/11 05:53:40;;;;;;;8.27;2.72;;;;;;;17.38;68.84;102257.38;5062999;28;20479;-75
2022/06/11 05:56:06;;;;;;;15.18;2.53;;;;;;;17.46;68.33;102252.31;5057329;28;20033;-75
2022/06/11 05:58:37;;;;;;;12.68;2.83;;;;;;;17.51;67.54;102248.97;5043703;28;20031;-75
2022/06/11 06:01:04;;;;;;;11.95;2.60;;;;;;;17.54;68.12;102248.19;5060058;28;20032;-75
2022/06/11 06:03:29;;;;;;;12.32;2.42;;;;;;;17.65;67.80;102257.97;5051643;28;20498;-75
2022/06/11 06:05:54;;;;;;;11.77;2.60;;;;;;;17.70;68.23;102263.25;5033654;28;20470;-75
2022/06/11 06:08:20;;;;;;;13.43;2.97;;;;;;;17.83;67.77;102252.28;5034184;28;20190;-75
2022/06/11 06:10:45;;;;;;;14.27;2.78;;;;;;;17.88;68.31;102254.97;5050986;28;20470;-75
2022/06/11 06:15:54;;;;;;;8.05;2.53;;;;;;;17.99;67.98;102255.19;5056763;28;20059;-75
2022/06/11 06:18:21;;;;;;;8.25;2.38;;;;;;;18.03;67.57;102259.63;5033540;28;20044;-75
2022/06/11 06:20:47;;;;;;;15.27;2.40;;;;;;;18.03;66.59;102262.22;5055402;28;20037;-75
2022/06/11 06:23:13;;;;;;;10.85;2.75;;;;;;;18.14;67.75;102260.69;5058854;28;20152;-75
2022/06/11 06:25:39;;;;;;;13.38;3.15;;;;;;;18.22;67.29;102265.22;5053901;28;20064;-75
2022/06/11 06:28:05;;;;;;;11.35;2.58;;;;;;;18.23;67.03;102269.56;5051417;28;20098;-75
2022/06/11 06:30:34;;;;;;;13.75;2.70;;;;;;;18.22;67.19;102261.72;5060419;28;20048;-75
2022/06/11 06:33:00;;;;;;;;;;;;;;;18.35;68.24;102270.66;5044350;28;20112;-75
2022/06/11 06:35:25;;;;;;;11.10;2.85;;;;;;;18.18;66.53;102271.19;5060700;28;20011;-75
2022/06/11 06:37:50;;;;;;;15.65;3.20;;;;;;;18.16;67.30;102272.91;5048733;28;20060;-75
2022/06/11 06:40:16;;;;;;;18.48;3.47;;;;;;;18.28;67.48;102274.88;5056921;28;20050;-75
2022/06/11 06:42:41;;;;;;;17.52;3.10;;;;;;;18.31;67.92;102289.66;5065583;28;20068;-75
2022/06/11 06:45:07;;;;;;;18.40;3.10;;;;;;;18.33;66.93;102282.78;5047524;28;20043;-75
2022/06/11 06:47:33;;;;;;;18.00;3.30;;;;;;;18.31;67.23;102285.31;5060054;28;20593;-75
2022/06/11 06:49:58;;;;;;;21.15;3.40;;;;;;;18.34;67.03;102272.38;5027966;28;20065;-75
2022/06/11 06:52:24;;;;;;;15.10;3.13;;;;;;;18.54;67.15;102280.53;5007193;28;20036;-75
2022/06/11 06:54:50;;;;;;;17.15;3.25;;;;;;;18.61;66.68;102279.78;5042048;28;20081;-75
2022/06/11 07:00:29;;;;;;;16.50;3.22;;;;;;;18.67;67.44;102279.94;5012834;28;20436;-75
2022/06/11 07:02:55;;;;;;;18.45;3.08;;;;;;;18.69;67.42;102275.66;5055498;28;20037;-75
2022/06/11 07:05:22;;;;;;;14.85;3.20;;;;;;;18.81;66.89;102269.75;5038924;28;20044;-75
2022/06/11 07:07:48;;;;;;;16.90;3.30;;;;;;;18.98;66.86;102280.44;5050495;28;20048;-75
2022/06/11 07:10:16;;;;;;;17.30;3.05;;;;;;;18.92;66.62;102278.59;5037744;28;20059;-76
2022/06/11 07:12:41;;;;;;;15.70;3.50;;;;;;;18.86;66.38;102282.84;5054651;28;20040;-76
2022/06/11 07:15:07;;;;;;;20.45;3.35;;;;;;;18.85;65.99;102279.38;5054323;28;20033;-76
2022/06/11 07:17:39;;;;;;;17.98;3.33;;;;;;;18.82;66.54;102291.50;5054463;28;20025;-76
2022/06/11 07:20:10;;;;;;;15.93;3.63;;;;;;;18.80;66.80;102290.56;5064159;28;20158;-76
2022/06/11 07:22:43;;;;;;;18.20;3.22;;;;;;;18.75;67.58;102272.28;5059170;28;20132;-76
2022/06/11 07:25:10;;;;;;;18.95;3.40;;;;;;;18.69;67.49;102278.25;5060955;28;20112;-76
2022/06/11 07:27:42;;;;;;;15.85;3.05;;;;;;;18.72;66.79;102272.19;5063990;28;20029;-76
2022/06/11 07:30:15;;;;;;;16.98;3.53;;;;;;;18.84;66.99;102266.31;5062710;28;20027;-76
2022/06/11 07:32:42;;;;;;;17.88;3.47;;;;;;;18.91;66.10;102273.38;5061112;28;20024;-76
2022/06/11 07:35:12;;;;;;;16.35;3.65;;;;;;;18.98;68.05;102273.50;5059531;28;20024;-76
2022/06/11 07:37:38;;;;;;;13.90;3.35;;;;;;;19.08;68.02;102278.88;5059369;28;20055;-76
2022/06/11 07:40:05;;;;;;;16.23;3.30;;;;;;;19.09;65.68;102271.06;5045265;28;20032;-76
2022/06/11 07:42:31;;;;;;;14.30;3.38;;;;;;;19.16;65.15;102279.84;5063340;28;20037;-76
2022/06/11 07:44:56;;;;;;;16.02;3.08;;;;;;;19.21;64.84;102273.84;5063711;28;20047;-76
2022/06/11 07:50:08;;;;;;;13.32;3.42;;;;;;;19.25;65.07;102278.28;5065018;28;20078;-73
2022/06/11 07:52:34;;;;;;;16.13;3.30;;;;;;;19.24;63.96;102273.91;5061972;28;20529;-72
2022/06/11 07:54:59;;;;;;;16.90;3.20;;;;;;;19.42;63.95;102277.66;5066982;28;20032;-71
2022/06/11 07:57:25;;;;;;;17.70;3.47;;;;;;;19.60;64.83;102275.31;5062247;28;20958;-72
2022/06/11 07:59:50;;;;;;;19.40;3.72;;;;;;;19.59;62.42;102275.28;5060529;28;20044;-72
2022/06/11 08:02:15;;;;;;;16.73;3.35;;;;;;;19.75;63.79;102282.44;5062330;28;20147;-72
2022/06/11 08:04:41;;;;;;;19.10;3.45;;;;;;;19.85;63.05;102280.84;5060460;28;20044;-72
2022/06/11 08:07:06;;;;;;;14.40;3.40;;;;;;;19.94;63.87;102289.66;5063810;28;20033;-72
2022/06/11 08:09:32;;;;;;;15.23;3.50;;;;;;;20.01;63.38;102277.53;5056980;28;20037;-73
2022/06/11 08:11:57;;;;;;;16.42;3.30;;;;;;;20.17;64.20;102297.75;5049162;28;20059;-73
2022/06/11 08:14:22;;;;;;;19.13;4.32;;;;;;;20.22;62.00;102282.16;5058869;28;20190;-73
2022/06/11 08:16:48;;;;;;;15.43;3.58;;;;;;;20.32;62.93;102297.03;5053798;28;20050;-72
2022/06/11 08:19:14;;;;;;;13.73;3.50;;;;;;;20.33;62.23;102302.31;5058393;28;20098;-72
2022/06/11 08:21:41;;;;;;;21.30;3.90;;;;;;;20.40;62.20;102308.47;5056735;28;20032;-72
2022/06/11 08:24:07;;;;;;;15.35;3.58;;;;;;;20.34;62.24;102305.78;5057604;28;20025;-72
2022/06/11 08:26:33;;;;;;;14.35;2.95;;;;;;;20.41;62.24;102304.97;5059190;28;22090;-73
2022/06/11 08:28:58;;;;;;;12.77;3.60;;;;;;;20.31;60.09;102304.00;5056607;28;20033;-72
2022/06/11 08:31:23;;;;;;;21.00;3.80;;;;;;;20.24;60.37;102310.03;5060353;28;20500;-73
2022/06/11 08:33:49;;;;;;;15.48;3.42;;;;;;;20.24;61.27;102311.75;5063088;28;20123;-73
2022/06/11 08:36:14;;;;;;;17.85;3.72;;;;;;;20.36;61.00;102314.50;5059049;28;20040;-73
2022/06/11 08:38:40;;;;;;;18.25;3.85;;;;;;;20.51;61.38;102311.22;5060961;28;20036;-73
2022/06/11 08:41:30;;;;;;;18.20;3.38;;;;;;;20.61;60.79;102313.03;5058265;28;20102;-73
2022/06/11 08:43:59;;;;;;;23.50;4.13;;;;;;;20.54;59.31;102319.09;5061510;28;20246;-73
2022/06/11 08:46:28;;;;;;;19.05;3.42;;;;;;;20.58;59.96;102316.53;5040893;28;20158;-73
2022/06/11 08:49:08;;;;;;;17.27;3.53;;;;;;;20.65;60.46;102319.19;5060651;28;20036;-73
2022/06/11 08:51:41;;;;;;;17.33;3.47;;;;;;;20.63;59.03;102306.13;5058084;28;20078;-73
2022/06/11 08:54:14;;;;;;;19.90;3.53;;;;;;;20.60;60.21;102320.00;5062045;28;20021;-72
2022/06/11 08:56:52;;;;;;;18.85;3.70;;;;;;;20.65;60.75;102311.34;5057595;28;20024;-73
2022/06/11 08:59:23;;;;;;;20.92;3.38;;;;;;;20.55;60.41;102307.75;5059008;28;20111;-73
2022/06/11 09:02:03;;;;;;;18.60;3.67;;;;;;;20.59;60.85;102313.03;5054986;28;20132;-73
2022/06/11 09:04:53;;;;;;;19.52;3.85;;;;;;;20.66;61.27;102316.59;5056176;28;20043;-71
2022/06/11 09:08:01;;;;;;;19.40;3.75;;;;;;;20.74;61.40;102314.91;5056385;28;20028;-72
2022/06/11 09:11:04;;;;;;;16.48;3.60;;;;;;;20.89;62.07;102311.56;5051824;28;20064;-70
2022/06/11 09:13:48;;;;;;;22.85;4.03;;;;;;;20.96;61.20;102304.66;5054086;28;20158;-70
2022/06/11 09:16:26;;;;;;;18.77;4.07;;;;;;;20.96;60.34;102304.66;5055190;28;20036;-70
2022/06/11 09:19:32;;;;;;;15.80;3.45;;;;;;;21.10;61.54;102303.00;5054459;28;20036;-70
2022/06/11 09:22:07;;;;;;;19.90;4.03;;;;;;;21.23;59.64;102309.19;5052963;28;20063;-70
2022/06/11 09:24:42;;;;;;;22.67;3.58;;;;;;;21.27;59.48;102311.84;5053925;28;20028;-70
2022/06/11 09:27:26;;;;;;;18.85;4.13;;;;;;;21.41;60.06;102307.59;5053069;28;20074;-70
2022/06/11 09:30:04;;;;;;;17.85;3.63;;;;;;;21.49;59.36;102309.41;5051341;28;20656;-72
2022/06/11 09:32:54;;;;;;;18.67;4.18;;;;;;;21.59;57.60;102309.44;5055056;28;20101;-70
2022/06/11 09:35:35;;;;;;;13.40;3.45;;;;;;;21.67;58.45;102302.53;5045246;28;20422;-71
2022/06/11 09:38:16;;;;;;;18.83;3.63;;;;;;;21.79;59.97;102311.31;5055034;28;20696;-72
2022/06/11 09:40:50;;;;;;;17.35;3.13;;;;;;;21.90;58.06;102310.50;5053105;28;20395;-72
2022/06/11 09:43:44;;;;;;;18.52;3.70;;;;;;;22.04;59.79;102313.16;5055929;28;20024;-72
2022/06/11 09:46:17;;;;;;;20.50;4.18;;;;;;;22.14;58.74;102306.22;5052280;28;20032;-72
2022/06/11 09:48:46;;;;;;;15.82;3.47;;;;;;;22.20;57.92;102309.78;5039826;28;20501;-72
2022/06/11 09:51:35;;;;;;;18.40;4.00;;;;;;;22.26;56.63;102316.75;5040193;28;20066;-72
2022/06/11 09:54:27;;;;;;;16.17;3.38;;;;;;;22.47;57.85;102313.31;5054612;28;20045;-72
2022/06/11 09:56:56;;;;;;;15.23;3.60;;;;;;;22.55;55.88;102310.69;5056367;28;20047;-71
2022/06/11 09:59:24;;;;;;;19.90;3.83;;;;;;;22.57;55.63;102312.47;5042208;28;20039;-72
2022/06/11 10:01:54;;;;;;;15.73;3.88;;;;;;;22.46;55.56;102312.44;5032660;28;20422;-72
2022/06/11 10:04:26;;;;;;;16.25;3.60;;;;;;;22.40;56.35;102307.19;5054005;28;20032;-72
2022/06/11 10:06:55;;;;;;;14.77;3.53;;;;;;;22.37;57.03;102306.28;5054568;28;20025;-71
2022/06/11 10:09:26;;;;;;;14.55;3.67;;;;;;;22.45;57.11;102304.59;5051486;28;20459;-71
2022/06/11 10:11:58;;;;;;;14.68;3.60;;;;;;;22.46;56.05;102307.19;5054968;28;20025;-74
2022/06/11 10:14:38;;;;;;;17.35;3.75;;;;;;;22.67;57.09;102310.72;5052314;28;20522;-74
2022/06/11 10:17:04;;;;;;;18.95;4.07;;;;;;;22.75;58.19;102302.00;5058389;28;20079;-73
2022/06/11 10:19:37;;;;;;;17.10;4.15;;;;;;;22.67;56.35;102315.97;5058693;28;20032;-75
2022/06/11 10:22:31;;;;;;;16.33;3.25;;;;;;;22.72;56.08;102307.22;5057353;28;20063;-74
2022/06/11 10:25:02;;;;;;;14.90;3.10;;;;;;;22.85;54.81;102310.72;5043716;28;20045;-73
2022/06/11 10:27:35;;;;;;;15.65;3.10;;;;;;;23.02;54.62;102310.75;5046189;28;20064;-74
2022/06/11 10:30:13;;;;;;;20.30;3.55;;;;;;;23.19;55.45;102316.00;5048162;28;20067;-74
2022/06/11 10:32:43;;;;;;;17.35;3.40;;;;;;;23.25;52.63;102316.84;5052212;28;20016;-74
2022/06/11 10:35:12;;;;;;;15.65;3.05;;;;;;;23.38;53.14;102312.47;5035546;28;20028;-74
2022/06/11 10:37:49;;;;;;;16.15;3.30;;;;;;;23.34;53.41;102305.47;5052583;28;20055;-74
2022/06/11 10:40:31;;;;;;;14.55;3.15;;;;;;;23.44;52.12;102301.94;5032595;28;20029;-74
2022/06/11 10:43:33;;;;;;;18.67;3.65;;;;;;;23.59;53.70;102314.13;5029853;28;20037;-71
2022/06/11 10:46:00;;;;;;;14.20;3.85;;;;;;;23.65;53.01;102316.78;5055594;28;20123;-73
2022/06/11 10:48:32;;;;;;;19.77;3.58;;;;;;;23.76;50.96;102306.25;5035582;28;20059;-73
2022/06/11 10:50:58;;;;;;;15.15;3.40;;;;;;;23.83;50.41;102305.34;5047310;28;20170;-72
2022/06/11 10:53:49;;;;;;;14.43;2.95;;;;;;;23.92;51.50;102302.69;5040442;28;20119;-72
2022/06/11 10:56:19;;;;;;;14.77;3.40;;;;;;;23.98;51.08;102304.41;5048340;28;20048;-72
2022/06/11 10:58:48;;;;;;;12.13;2.80;;;;;;;24.05;49.35;102311.38;5049623;28;20033;-71
2022/06/11 11:01:32;;;;;;;14.38;3.35;;;;;;;24.06;51.48;102306.13;5037518;28;20032;-71
2022/06/11 11:04:17;;;;;;;13.20;2.72;;;;;;;24.06;50.80;102313.13;5054599;28;20036;-71
2022/06/11 11:06:43;;;;;;;15.48;3.13;;;;;;;24.00;50.71;102303.50;5052833;28;20119;-71
2022/06/11 11:09:19;;;;;;;16.65;3.10;;;;;;;24.00;50.80;102308.78;5049114;28;20095;-72
2022/06/11 11:11:49;;;;;;;19.92;3.78;;;;;;;23.78;49.27;102310.63;5049846;28;20033;-72
2022/06/11 11:14:18;;;;;;;16.65;3.10;;;;;;;23.88;51.35;102308.81;5050339;28;20021;-72
2022/06/11 11:16:48;;;;;;;14.93;3.08;;;;;;;23.85;50.35;102297.47;5046358;28;20522;-75
2022/06/11 11:19:26;;;;;;;13.48;3.25;;;;;;;23.92;51.18;102300.06;5030720;28;20032;-76
2022/06/11 11:22:03;;;;;;;14.13;3.33;;;;;;;23.91;51.10;102290.44;5046787;28;20060;-78
2022/06/11 11:24:36;;;;;;;19.85;3.50;;;;;;;23.89;49.81;102281.66;5030817;28;20037;-83
2022/06/11 11:27:22;;;;;;;15.18;2.92;;;;;;;23.94;51.71;102294.78;5049350;28;20028;-77
2022/06/11 11:30:10;;;;;;;12.52;2.70;;;;;;;23.91;51.08;102287.81;5061537;28;20032;-77
2022/06/11 11:32:37;;;;;;;13.32;3.60;;;;;;;23.85;50.85;102293.09;5051386;28;20047;-77
2022/06/11 11:35:21;;;;;;;13.65;2.83;;;;;;;23.94;51.13;102293.03;5042577;28;20391;-78
2022/06/11 11:38:23;;;;;;;14.23;3.35;;;;;;;23.97;50.99;102298.28;5064777;28;20056;-77
2022/06/11 11:40:54;;;;;;;13.98;3.42;;;;;;;23.97;50.05;102293.03;5061514;28;20040;-76
2022/06/11 11:43:21;;;;;;;13.05;3.20;;;;;;;23.96;50.14;102286.00;5045877;28;20744;-76
2022/06/11 11:45:55;;;;;;;12.85;2.95;;;;;;;24.08;49.71;102291.19;5050644;28;20075;-75
2022/06/11 11:48:33;;;;;;;14.85;2.70;;;;;;;24.13;50.94;102296.44;5038782;28;20040;-76
2022/06/11 11:51:27;;;;;;;13.07;3.00;;;;;;;24.19;50.42;102280.63;5033682;28;20041;-76